Terminal Aerodrome Forecast
Issued by NWS

Current Version | Previous Version | Text Only | Print | Product List | Glossary Off
Versions: 1 2 3 4 5 6 7 8 9 10 11 12 13 14 15 16 17 18 19 20 21

000
FTUS41 KILN 141600 AAA
TAFLUK
TAF AMD
KLUK 141639Z 1417/1512 22020G30KT 5SM -SHRA BR SCT015 OVC025
     FM141800 23015G25KT P6SM -SHRA OVC025
     FM142200 29014G25KT P6SM -RA OVC018
     FM150200 33018G28KT 5SM -RA BR OVC010
     FM150800 32018G26KT 4SM -SN BKN009=

USA.gov is the U.S. government's official web portal to all federal, state and local government web resources and services.